sensor_id;sensor_type;location;lat;lon;timestamp;P1;durP1;ratioP1;P2;durP2;ratioP2
20954;SDS011;10636;19.390;-99.256;2024-02-21T00:00:04;4.38;;;2.40;;
20954;SDS011;10636;19.390;-99.256;2024-02-21T00:02:34;4.20;;;2.60;;
20954;SDS011;10636;19.390;-99.256;2024-02-21T00:05:02;3.50;;;2.45;;
20954;SDS011;10636;19.390;-99.256;2024-02-21T00:07:31;4.47;;;2.50;;
20954;SDS011;10636;19.390;-99.256;2024-02-21T00:10:04;3.22;;;2.70;;
20954;SDS011;10636;19.390;-99.256;2024-02-21T00:12:33;4.75;;;2.65;;
20954;SDS011;10636;19.390;-99.256;2024-02-21T00:15:02;2.83;;;2.50;;
20954;SDS011;10636;19.390;-99.256;2024-02-21T00:17:32;3.55;;;2.63;;
20954;SDS011;10636;19.390;-99.256;2024-02-21T00:20:03;2.97;;;2.58;;
20954;SDS011;10636;19.390;-99.256;2024-02-21T00:22:37;3.38;;;2.53;;
20954;SDS011;10636;19.390;-99.256;2024-02-21T00:25:08;2.55;;;2.35;;
20954;SDS011;10636;19.390;-99.256;2024-02-21T00:27:36;3.70;;;2.40;;
20954;SDS011;10636;19.390;-99.256;2024-02-21T00:30:08;2.88;;;2.35;;
20954;SDS011;10636;19.390;-99.256;2024-02-21T00:32:37;4.13;;;2.60;;
20954;SDS011;10636;19.390;-99.256;2024-02-21T00:35:06;3.00;;;2.60;;
20954;SDS011;10636;19.390;-99.256;2024-02-21T00:37:35;2.65;;;2.40;;
20954;SDS011;10636;19.390;-99.256;2024-02-21T00:40:04;3.28;;;2.55;;
20954;SDS011;10636;19.390;-99.256;2024-02-21T00:42:34;3.55;;;2.50;;
20954;SDS011;10636;19.390;-99.256;2024-02-21T00:45:04;3.92;;;2.47;;
20954;SDS011;10636;19.390;-99.256;2024-02-21T00:47:33;4.03;;;2.70;;
20954;SDS011;10636;19.390;-99.256;2024-02-21T00:50:02;3.78;;;2.60;;
20954;SDS011;10636;19.390;-99.256;2024-02-21T00:52:31;2.78;;;2.58;;
20954;SDS011;10636;19.390;-99.256;2024-02-21T00:55:00;7.18;;;2.70;;
20954;SDS011;10636;19.390;-99.256;2024-02-21T00:57:28;3.53;;;2.60;;
20954;SDS011;10636;19.390;-99.256;2024-02-21T00:59:59;5.30;;;2.80;;
20954;SDS011;10636;19.390;-99.256;2024-02-21T01:02:27;3.38;;;2.63;;
20954;SDS011;10636;19.390;-99.256;2024-02-21T01:04:57;3.92;;;2.85;;
20954;SDS011;10636;19.390;-99.256;2024-02-21T01:07:25;2.80;;;2.42;;
20954;SDS011;10636;19.390;-99.256;2024-02-21T01:09:53;6.15;;;2.95;;
20954;SDS011;10636;19.390;-99.256;2024-02-21T01:12:25;3.42;;;2.58;;
20954;SDS011;10636;19.390;-99.256;2024-02-21T01:14:54;5.47;;;2.92;;
20954;SDS011;10636;19.390;-99.256;2024-02-21T01:17:25;3.67;;;2.53;;
20954;SDS011;10636;19.390;-99.256;2024-02-21T01:19:54;5.03;;;2.75;;
20954;SDS011;10636;19.390;-99.256;2024-02-21T01:22:22;6.30;;;2.78;;
20954;SDS011;10636;19.390;-99.256;2024-02-21T01:24:51;4.65;;;2.60;;
20954;SDS011;10636;19.390;-99.256;2024-02-21T01:27:19;5.18;;;2.50;;
20954;SDS011;10636;19.390;-99.256;2024-02-21T01:29:48;5.38;;;2.80;;
20954;SDS011;10636;19.390;-99.256;2024-02-21T01:32:17;3.35;;;2.47;;
20954;SDS011;10636;19.390;-99.256;2024-02-21T01:34:51;5.22;;;3.13;;
20954;SDS011;10636;19.390;-99.256;2024-02-21T01:37:20;5.45;;;2.63;;
20954;SDS011;10636;19.390;-99.256;2024-02-21T01:39:51;6.30;;;2.60;;
20954;SDS011;10636;19.390;-99.256;2024-02-21T01:42:20;5.25;;;2.60;;
20954;SDS011;10636;19.390;-99.256;2024-02-21T01:44:51;4.65;;;2.58;;
20954;SDS011;10636;19.390;-99.256;2024-02-21T01:47:19;3.35;;;2.50;;
20954;SDS011;10636;19.390;-99.256;2024-02-21T01:49:48;6.47;;;3.00;;
20954;SDS011;10636;19.390;-99.256;2024-02-21T01:52:19;7.70;;;3.28;;
20954;SDS011;10636;19.390;-99.256;2024-02-21T01:54:47;3.58;;;2.95;;
20954;SDS011;10636;19.390;-99.256;2024-02-21T01:57:19;6.68;;;3.70;;
20954;SDS011;10636;19.390;-99.256;2024-02-21T01:59:48;5.20;;;3.40;;
20954;SDS011;10636;19.390;-99.256;2024-02-21T02:02:18;5.18;;;3.33;;
20954;SDS011;10636;19.390;-99.256;2024-02-21T02:04:47;4.20;;;3.28;;
20954;SDS011;10636;19.390;-99.256;2024-02-21T02:07:17;5.22;;;2.90;;
20954;SDS011;10636;19.390;-99.256;2024-02-21T02:09:45;3.95;;;3.03;;
20954;SDS011;10636;19.390;-99.256;2024-02-21T02:12:14;4.25;;;2.75;;
20954;SDS011;10636;19.390;-99.256;2024-02-21T02:14:43;4.28;;;2.70;;
20954;SDS011;10636;19.390;-99.256;2024-02-21T02:17:11;3.58;;;2.47;;
20954;SDS011;10636;19.390;-99.256;2024-02-21T02:19:40;5.20;;;2.60;;
20954;SDS011;10636;19.390;-99.256;2024-02-21T02:22:13;3.83;;;2.92;;
20954;SDS011;10636;19.390;-99.256;2024-02-21T02:24:51;3.22;;;2.60;;
20954;SDS011;10636;19.390;-99.256;2024-02-21T02:27:23;5.82;;;2.50;;
20954;SDS011;10636;19.390;-99.256;2024-02-21T02:29:55;4.78;;;2.47;;
20954;SDS011;10636;19.390;-99.256;2024-02-21T02:32:23;4.22;;;2.85;;
20954;SDS011;10636;19.390;-99.256;2024-02-21T02:34:52;5.85;;;2.63;;
20954;SDS011;10636;19.390;-99.256;2024-02-21T02:37:22;2.65;;;2.45;;
20954;SDS011;10636;19.390;-99.256;2024-02-21T02:39:52;3.85;;;2.97;;
20954;SDS011;10636;19.390;-99.256;2024-02-21T02:42:20;4.70;;;2.95;;
20954;SDS011;10636;19.390;-99.256;2024-02-21T02:44:49;3.80;;;2.60;;
20954;SDS011;10636;19.390;-99.256;2024-02-21T02:47:18;4.90;;;3.20;;
20954;SDS011;10636;19.390;-99.256;2024-02-21T02:49:46;4.72;;;2.65;;
20954;SDS011;10636;19.390;-99.256;2024-02-21T02:52:16;5.95;;;3.10;;
20954;SDS011;10636;19.390;-99.256;2024-02-21T02:54:45;4.22;;;2.92;;
20954;SDS011;10636;19.390;-99.256;2024-02-21T02:57:19;4.78;;;2.97;;
20954;SDS011;10636;19.390;-99.256;2024-02-21T02:59:48;4.65;;;2.70;;
20954;SDS011;10636;19.390;-99.256;2024-02-21T03:02:20;6.00;;;3.72;;
20954;SDS011;10636;19.390;-99.256;2024-02-21T03:04:47;5.30;;;3.85;;
20954;SDS011;10636;19.390;-99.256;2024-02-21T03:07:16;5.88;;;3.83;;
20954;SDS011;10636;19.390;-99.256;2024-02-21T03:09:45;4.68;;;4.05;;
20954;SDS011;10636;19.390;-99.256;2024-02-21T03:12:13;5.78;;;4.40;;
20954;SDS011;10636;19.390;-99.256;2024-02-21T03:14:51;6.35;;;4.35;;
20954;SDS011;10636;19.390;-99.256;2024-02-21T03:17:19;5.32;;;4.63;;
20954;SDS011;10636;19.390;-99.256;2024-02-21T03:19:48;8.27;;;5.50;;
20954;SDS011;10636;19.390;-99.256;2024-02-21T03:22:18;10.18;;;5.20;;
20954;SDS011;10636;19.390;-99.256;2024-02-21T03:24:46;6.93;;;4.90;;
20954;SDS011;10636;19.390;-99.256;2024-02-21T03:27:15;5.75;;;4.63;;
20954;SDS011;10636;19.390;-99.256;2024-02-21T03:29:45;5.82;;;4.47;;
20954;SDS011;10636;19.390;-99.256;2024-02-21T03:32:15;6.22;;;4.80;;
20954;SDS011;10636;19.390;-99.256;2024-02-21T03:34:44;4.97;;;4.47;;
20954;SDS011;10636;19.390;-99.256;2024-02-21T03:37:12;6.78;;;4.65;;
20954;SDS011;10636;19.390;-99.256;2024-02-21T03:39:41;6.78;;;4.38;;
20954;SDS011;10636;19.390;-99.256;2024-02-21T03:42:11;5.35;;;4.63;;
20954;SDS011;10636;19.390;-99.256;2024-02-21T03:44:39;5.97;;;4.63;;
20954;SDS011;10636;19.390;-99.256;2024-02-21T03:47:12;4.90;;;4.38;;
20954;SDS011;10636;19.390;-99.256;2024-02-21T03:49:42;5.80;;;4.53;;
20954;SDS011;10636;19.390;-99.256;2024-02-21T03:52:10;6.13;;;4.45;;
20954;SDS011;10636;19.390;-99.256;2024-02-21T03:54:39;5.55;;;3.92;;
20954;SDS011;10636;19.390;-99.256;2024-02-21T03:57:07;5.95;;;4.38;;
20954;SDS011;10636;19.390;-99.256;2024-02-21T03:59:39;5.07;;;4.13;;
20954;SDS011;10636;19.390;-99.256;2024-02-21T04:02:08;4.78;;;4.03;;
20954;SDS011;10636;19.390;-99.256;2024-02-21T04:04:36;4.70;;;4.22;;
20954;SDS011;10636;19.390;-99.256;2024-02-21T04:07:07;5.57;;;4.00;;
20954;SDS011;10636;19.390;-99.256;2024-02-21T04:09:35;4.72;;;3.95;;
20954;SDS011;10636;19.390;-99.256;2024-02-21T04:12:05;5.28;;;4.20;;
20954;SDS011;10636;19.390;-99.256;2024-02-21T04:14:35;4.35;;;3.95;;
20954;SDS011;10636;19.390;-99.256;2024-02-21T04:17:05;4.75;;;4.05;;
20954;SDS011;10636;19.390;-99.256;2024-02-21T04:19:34;5.88;;;3.88;;
20954;SDS011;10636;19.390;-99.256;2024-02-21T04:22:13;6.03;;;3.80;;
20954;SDS011;10636;19.390;-99.256;2024-02-21T04:24:42;6.10;;;4.15;;
20954;SDS011;10636;19.390;-99.256;2024-02-21T04:27:13;4.38;;;3.80;;
20954;SDS011;10636;19.390;-99.256;2024-02-21T04:30:10;5.90;;;3.60;;
20954;SDS011;10636;19.390;-99.256;2024-02-21T04:32:45;5.60;;;3.92;;
20954;SDS011;10636;19.390;-99.256;2024-02-21T04:35:26;5.25;;;3.80;;
20954;SDS011;10636;19.390;-99.256;2024-02-21T04:38:03;4.18;;;3.60;;
20954;SDS011;10636;19.390;-99.256;2024-02-21T04:40:33;3.95;;;3.65;;
20954;SDS011;10636;19.390;-99.256;2024-02-21T04:43:01;7.25;;;3.60;;
20954;SDS011;10636;19.390;-99.256;2024-02-21T04:45:30;3.75;;;3.30;;
20954;SDS011;10636;19.390;-99.256;2024-02-21T04:47:59;4.13;;;3.35;;
20954;SDS011;10636;19.390;-99.256;2024-02-21T04:50:31;4.55;;;2.92;;
20954;SDS011;10636;19.390;-99.256;2024-02-21T04:53:01;3.65;;;3.03;;
20954;SDS011;10636;19.390;-99.256;2024-02-21T04:55:29;3.67;;;3.22;;
20954;SDS011;10636;19.390;-99.256;2024-02-21T04:57:58;3.53;;;3.08;;
20954;SDS011;10636;19.390;-99.256;2024-02-21T05:00:28;3.72;;;3.42;;
20954;SDS011;10636;19.390;-99.256;2024-02-21T05:02:56;3.40;;;3.10;;
20954;SDS011;10636;19.390;-99.256;2024-02-21T05:05:25;3.58;;;3.28;;
20954;SDS011;10636;19.390;-99.256;2024-02-21T05:07:54;3.50;;;3.05;;
20954;SDS011;10636;19.390;-99.256;2024-02-21T05:10:24;3.67;;;2.90;;
20954;SDS011;10636;19.390;-99.256;2024-02-21T05:12:52;3.63;;;2.90;;
20954;SDS011;10636;19.390;-99.256;2024-02-21T05:15:21;3.63;;;3.05;;
20954;SDS011;10636;19.390;-99.256;2024-02-21T05:17:51;3.83;;;3.38;;
20954;SDS011;10636;19.390;-99.256;2024-02-21T05:20:20;4.63;;;3.10;;
20954;SDS011;10636;19.390;-99.256;2024-02-21T05:22:48;4.28;;;3.38;;
20954;SDS011;10636;19.390;-99.256;2024-02-21T05:25:17;3.47;;;3.10;;
20954;SDS011;10636;19.390;-99.256;2024-02-21T05:27:47;3.40;;;2.90;;
20954;SDS011;10636;19.390;-99.256;2024-02-21T05:30:18;3.25;;;2.83;;
20954;SDS011;10636;19.390;-99.256;2024-02-21T05:32:47;4.10;;;3.10;;
20954;SDS011;10636;19.390;-99.256;2024-02-21T05:35:15;3.20;;;2.90;;
20954;SDS011;10636;19.390;-99.256;2024-02-21T05:37:44;3.20;;;2.88;;
20954;SDS011;10636;19.390;-99.256;2024-02-21T05:40:14;3.20;;;2.90;;
20954;SDS011;10636;19.390;-99.256;2024-02-21T05:42:42;3.13;;;2.83;;
20954;SDS011;10636;19.390;-99.256;2024-02-21T05:45:13;3.33;;;3.00;;
20954;SDS011;10636;19.390;-99.256;2024-02-21T05:47:41;3.10;;;2.80;;
20954;SDS011;10636;19.390;-99.256;2024-02-21T05:50:10;2.95;;;2.75;;
20954;SDS011;10636;19.390;-99.256;2024-02-21T05:52:39;3.42;;;2.50;;
20954;SDS011;10636;19.390;-99.256;2024-02-21T05:55:07;3.35;;;2.85;;
20954;SDS011;10636;19.390;-99.256;2024-02-21T05:57:36;2.95;;;2.67;;
20954;SDS011;10636;19.390;-99.256;2024-02-21T06:00:05;2.90;;;2.63;;
20954;SDS011;10636;19.390;-99.256;2024-02-21T06:02:36;3.97;;;2.70;;
20954;SDS011;10636;19.390;-99.256;2024-02-21T06:05:05;2.83;;;2.58;;
20954;SDS011;10636;19.390;-99.256;2024-02-21T06:07:36;3.17;;;2.88;;
20954;SDS011;10636;19.390;-99.256;2024-02-21T06:10:06;3.90;;;2.90;;
20954;SDS011;10636;19.390;-99.256;2024-02-21T06:12:35;3.13;;;2.50;;
20954;SDS011;10636;19.390;-99.256;2024-02-21T06:15:04;3.28;;;2.60;;
20954;SDS011;10636;19.390;-99.256;2024-02-21T06:17:33;3.08;;;2.78;;
20954;SDS011;10636;19.390;-99.256;2024-02-21T06:20:04;2.80;;;2.60;;
20954;SDS011;10636;19.390;-99.256;2024-02-21T06:22:33;2.80;;;2.60;;
20954;SDS011;10636;19.390;-99.256;2024-02-21T06:25:01;2.95;;;2.40;;
20954;SDS011;10636;19.390;-99.256;2024-02-21T06:27:30;3.65;;;2.63;;
20954;SDS011;10636;19.390;-99.256;2024-02-21T06:29:58;2.60;;;2.40;;
20954;SDS011;10636;19.390;-99.256;2024-02-21T06:32:28;3.33;;;2.60;;
20954;SDS011;10636;19.390;-99.256;2024-02-21T06:34:57;3.58;;;2.60;;
20954;SDS011;10636;19.390;-99.256;2024-02-21T06:37:28;2.92;;;2.40;;
20954;SDS011;10636;19.390;-99.256;2024-02-21T06:39:57;3.45;;;2.40;;
20954;SDS011;10636;19.390;-99.256;2024-02-21T06:42:26;3.20;;;2.33;;
20954;SDS011;10636;19.390;-99.256;2024-02-21T06:44:55;2.63;;;2.42;;
20954;SDS011;10636;19.390;-99.256;2024-02-21T06:47:23;2.78;;;2.45;;
20954;SDS011;10636;19.390;-99.256;2024-02-21T06:49:52;2.60;;;2.40;;
20954;SDS011;10636;19.390;-99.256;2024-02-21T06:52:20;2.58;;;2.35;;
20954;SDS011;10636;19.390;-99.256;2024-02-21T06:54:52;3.20;;;2.58;;
20954;SDS011;10636;19.390;-99.256;2024-02-21T06:57:20;3.03;;;2.55;;
20954;SDS011;10636;19.390;-99.256;2024-02-21T06:59:49;2.90;;;2.55;;
20954;SDS011;10636;19.390;-99.256;2024-02-21T07:02:17;2.63;;;2.42;;
20954;SDS011;10636;19.390;-99.256;2024-02-21T07:04:48;3.05;;;2.72;;
20954;SDS011;10636;19.390;-99.256;2024-02-21T07:07:16;2.95;;;2.45;;
20954;SDS011;10636;19.390;-99.256;2024-02-21T07:09:45;3.35;;;2.33;;
20954;SDS011;10636;19.390;-99.256;2024-02-21T07:12:16;2.83;;;2.17;;
20954;SDS011;10636;19.390;-99.256;2024-02-21T07:14:45;2.65;;;2.15;;
20954;SDS011;10636;19.390;-99.256;2024-02-21T07:17:13;3.17;;;2.67;;
20954;SDS011;10636;19.390;-99.256;2024-02-21T07:19:42;2.55;;;2.35;;
20954;SDS011;10636;19.390;-99.256;2024-02-21T07:22:10;2.72;;;2.30;;
20954;SDS011;10636;19.390;-99.256;2024-02-21T07:24:39;2.63;;;2.10;;
20954;SDS011;10636;19.390;-99.256;2024-02-21T07:27:07;2.35;;;2.15;;
20954;SDS011;10636;19.390;-99.256;2024-02-21T07:29:37;2.78;;;2.28;;
20954;SDS011;10636;19.390;-99.256;2024-02-21T07:32:06;2.50;;;2.20;;
20954;SDS011;10636;19.390;-99.256;2024-02-21T07:34:34;2.40;;;2.20;;
20954;SDS011;10636;19.390;-99.256;2024-02-21T07:37:03;2.47;;;2.28;;
20954;SDS011;10636;19.390;-99.256;2024-02-21T07:39:31;2.60;;;2.38;;
20954;SDS011;10636;19.390;-99.256;2024-02-21T07:42:04;2.63;;;2.25;;
20954;SDS011;10636;19.390;-99.256;2024-02-21T07:44:33;2.72;;;2.28;;
20954;SDS011;10636;19.390;-99.256;2024-02-21T07:47:03;2.50;;;2.30;;
20954;SDS011;10636;19.390;-99.256;2024-02-21T07:49:32;2.50;;;2.30;;
20954;SDS011;10636;19.390;-99.256;2024-02-21T07:52:08;2.38;;;2.10;;
20954;SDS011;10636;19.390;-99.256;2024-02-21T07:54:37;2.33;;;2.00;;
20954;SDS011;10636;19.390;-99.256;2024-02-21T07:57:05;2.20;;;2.00;;
20954;SDS011;10636;19.390;-99.256;2024-02-21T07:59:33;2.67;;;2.00;;
20954;SDS011;10636;19.390;-99.256;2024-02-21T08:02:04;2.78;;;2.10;;
20954;SDS011;10636;19.390;-99.256;2024-02-21T08:04:35;2.10;;;1.90;;
20954;SDS011;10636;19.390;-99.256;2024-02-21T08:07:04;2.47;;;2.10;;
20954;SDS011;10636;19.390;-99.256;2024-02-21T08:09:33;2.38;;;2.17;;
20954;SDS011;10636;19.390;-99.256;2024-02-21T08:12:06;2.45;;;2.15;;
20954;SDS011;10636;19.390;-99.256;2024-02-21T08:14:35;2.17;;;1.98;;
20954;SDS011;10636;19.390;-99.256;2024-02-21T08:17:05;3.55;;;2.28;;
20954;SDS011;10636;19.390;-99.256;2024-02-21T08:19:33;3.15;;;2.20;;
20954;SDS011;10636;19.390;-99.256;2024-02-21T08:22:02;1.98;;;1.77;;
20954;SDS011;10636;19.390;-99.256;2024-02-21T08:24:31;2.30;;;2.10;;
20954;SDS011;10636;19.390;-99.256;2024-02-21T08:27:00;2.30;;;2.10;;
20954;SDS011;10636;19.390;-99.256;2024-02-21T08:29:28;2.10;;;1.80;;
20954;SDS011;10636;19.390;-99.256;2024-02-21T08:31:57;2.60;;;2.35;;
20954;SDS011;10636;19.390;-99.256;2024-02-21T08:34:27;2.10;;;1.90;;
20954;SDS011;10636;19.390;-99.256;2024-02-21T08:36:59;2.20;;;2.00;;
20954;SDS011;10636;19.390;-99.256;2024-02-21T08:39:28;2.25;;;1.90;;
20954;SDS011;10636;19.390;-99.256;2024-02-21T08:41:57;1.92;;;1.80;;
20954;SDS011;10636;19.390;-99.256;2024-02-21T08:44:27;2.00;;;1.90;;
20954;SDS011;10636;19.390;-99.256;2024-02-21T08:46:56;2.50;;;1.90;;
20954;SDS011;10636;19.390;-99.256;2024-02-21T08:49:24;2.50;;;1.80;;
20954;SDS011;10636;19.390;-99.256;2024-02-21T08:51:54;2.05;;;1.83;;
20954;SDS011;10636;19.390;-99.256;2024-02-21T08:54:23;2.03;;;1.83;;
20954;SDS011;10636;19.390;-99.256;2024-02-21T08:56:51;3.63;;;1.90;;
20954;SDS011;10636;19.390;-99.256;2024-02-21T08:59:20;1.80;;;1.70;;
20954;SDS011;10636;19.390;-99.256;2024-02-21T09:01:48;1.70;;;1.60;;
20954;SDS011;10636;19.390;-99.256;2024-02-21T09:04:18;2.05;;;1.85;;
20954;SDS011;10636;19.390;-99.256;2024-02-21T09:06:48;2.03;;;1.80;;
20954;SDS011;10636;19.390;-99.256;2024-02-21T09:09:22;2.10;;;1.90;;
20954;SDS011;10636;19.390;-99.256;2024-02-21T09:11:53;1.92;;;1.83;;
20954;SDS011;10636;19.390;-99.256;2024-02-21T09:14:23;1.90;;;1.80;;
20954;SDS011;10636;19.390;-99.256;2024-02-21T09:16:51;2.00;;;1.85;;
20954;SDS011;10636;19.390;-99.256;2024-02-21T09:19:21;1.60;;;1.50;;
20954;SDS011;10636;19.390;-99.256;2024-02-21T09:21:51;2.17;;;1.60;;
20954;SDS011;10636;19.390;-99.256;2024-02-21T09:24:19;1.50;;;1.40;;
20954;SDS011;10636;19.390;-99.256;2024-02-21T09:26:50;1.90;;;1.48;;
20954;SDS011;10636;19.390;-99.256;2024-02-21T09:29:18;2.33;;;1.67;;
20954;SDS011;10636;19.390;-99.256;2024-02-21T09:31:47;1.88;;;1.70;;
20954;SDS011;10636;19.390;-99.256;2024-02-21T09:34:15;1.63;;;1.52;;
20954;SDS011;10636;19.390;-99.256;2024-02-21T09:36:44;1.80;;;1.55;;
20954;SDS011;10636;19.390;-99.256;2024-02-21T09:39:14;1.67;;;1.58;;
20954;SDS011;10636;19.390;-99.256;2024-02-21T09:41:45;1.58;;;1.48;;
20954;SDS011;10636;19.390;-99.256;2024-02-21T09:44:17;1.63;;;1.50;;
20954;SDS011;10636;19.390;-99.256;2024-02-21T09:46:50;1.90;;;1.50;;
20954;SDS011;10636;19.390;-99.256;2024-02-21T09:49:26;1.83;;;1.65;;
20954;SDS011;10636;19.390;-99.256;2024-02-21T09:52:00;1.70;;;1.60;;
20954;SDS011;10636;19.390;-99.256;2024-02-21T09:54:32;1.40;;;1.33;;
20954;SDS011;10636;19.390;-99.256;2024-02-21T09:57:01;1.90;;;1.65;;
20954;SDS011;10636;19.390;-99.256;2024-02-21T09:59:31;1.45;;;1.35;;
20954;SDS011;10636;19.390;-99.256;2024-02-21T10:02:00;1.73;;;1.63;;
20954;SDS011;10636;19.390;-99.256;2024-02-21T10:04:30;1.67;;;1.48;;
20954;SDS011;10636;19.390;-99.256;2024-02-21T10:06:59;1.85;;;1.50;;
20954;SDS011;10636;19.390;-99.256;2024-02-21T10:09:31;2.42;;;1.60;;
20954;SDS011;10636;19.390;-99.256;2024-02-21T10:12:07;1.60;;;1.50;;
20954;SDS011;10636;19.390;-99.256;2024-02-21T10:14:36;1.75;;;1.65;;
20954;SDS011;10636;19.390;-99.256;2024-02-21T10:17:05;1.83;;;1.60;;
20954;SDS011;10636;19.390;-99.256;2024-02-21T10:19:35;1.70;;;1.60;;
20954;SDS011;10636;19.390;-99.256;2024-02-21T10:22:04;1.88;;;1.48;;
20954;SDS011;10636;19.390;-99.256;2024-02-21T10:24:35;1.70;;;1.50;;
20954;SDS011;10636;19.390;-99.256;2024-02-21T10:27:08;1.63;;;1.52;;
20954;SDS011;10636;19.390;-99.256;2024-02-21T10:29:40;1.50;;;1.40;;
20954;SDS011;10636;19.390;-99.256;2024-02-21T10:32:09;1.75;;;1.65;;
20954;SDS011;10636;19.390;-99.256;2024-02-21T10:34:41;1.60;;;1.50;;
20954;SDS011;10636;19.390;-99.256;2024-02-21T10:37:11;1.50;;;1.40;;
20954;SDS011;10636;19.390;-99.256;2024-02-21T10:39:41;1.83;;;1.60;;
20954;SDS011;10636;19.390;-99.256;2024-02-21T10:42:10;2.33;;;1.65;;
20954;SDS011;10636;19.390;-99.256;2024-02-21T10:44:39;1.52;;;1.42;;
20954;SDS011;10636;19.390;-99.256;2024-02-21T10:47:09;2.17;;;1.48;;
20954;SDS011;10636;19.390;-99.256;2024-02-21T10:49:39;2.03;;;1.45;;
20954;SDS011;10636;19.390;-99.256;2024-02-21T10:52:13;1.70;;;1.60;;
20954;SDS011;10636;19.390;-99.256;2024-02-21T10:54:47;1.65;;;1.48;;
20954;SDS011;10636;19.390;-99.256;2024-02-21T10:57:21;1.73;;;1.40;;
20954;SDS011;10636;19.390;-99.256;2024-02-21T10:59:51;1.42;;;1.33;;
20954;SDS011;10636;19.390;-99.256;2024-02-21T11:02:23;1.55;;;1.45;;
20954;SDS011;10636;19.390;-99.256;2024-02-21T11:04:52;1.50;;;1.40;;
20954;SDS011;10636;19.390;-99.256;2024-02-21T11:07:22;1.67;;;1.33;;
20954;SDS011;10636;19.390;-99.256;2024-02-21T11:09:53;1.73;;;1.48;;
20954;SDS011;10636;19.390;-99.256;2024-02-21T11:12:21;1.40;;;1.30;;
20954;SDS011;10636;19.390;-99.256;2024-02-21T11:14:50;1.75;;;1.40;;
20954;SDS011;10636;19.390;-99.256;2024-02-21T11:17:19;2.50;;;1.40;;
20954;SDS011;10636;19.390;-99.256;2024-02-21T11:19:51;2.25;;;1.50;;
20954;SDS011;10636;19.390;-99.256;2024-02-21T11:22:20;1.58;;;1.48;;
20954;SDS011;10636;19.390;-99.256;2024-02-21T11:24:50;1.60;;;1.50;;
20954;SDS011;10636;19.390;-99.256;2024-02-21T11:27:21;1.60;;;1.50;;
20954;SDS011;10636;19.390;-99.256;2024-02-21T11:29:54;2.63;;;1.48;;
20954;SDS011;10636;19.390;-99.256;2024-02-21T11:32:24;1.52;;;1.42;;
20954;SDS011;10636;19.390;-99.256;2024-02-21T11:34:55;1.80;;;1.35;;
20954;SDS011;10636;19.390;-99.256;2024-02-21T11:37:27;1.50;;;1.30;;
20954;SDS011;10636;19.390;-99.256;2024-02-21T11:39:56;2.13;;;1.55;;
20954;SDS011;10636;19.390;-99.256;2024-02-21T11:42:26;1.85;;;1.60;;
20954;SDS011;10636;19.390;-99.256;2024-02-21T11:44:56;1.77;;;1.60;;
20954;SDS011;10636;19.390;-99.256;2024-02-21T11:47:24;3.25;;;1.75;;
20954;SDS011;10636;19.390;-99.256;2024-02-21T11:49:53;2.10;;;1.80;;
20954;SDS011;10636;19.390;-99.256;2024-02-21T11:52:29;2.92;;;1.88;;
20954;SDS011;10636;19.390;-99.256;2024-02-21T11:54:57;2.20;;;2.00;;
20954;SDS011;10636;19.390;-99.256;2024-02-21T11:57:31;3.85;;;3.55;;
20954;SDS011;10636;19.390;-99.256;2024-02-21T12:00:10;5.25;;;4.75;;
20954;SDS011;10636;19.390;-99.256;2024-02-21T12:02:40;6.65;;;5.68;;
20954;SDS011;10636;19.390;-99.256;2024-02-21T12:05:09;6.30;;;5.70;;
20954;SDS011;10636;19.390;-99.256;2024-02-21T12:07:37;5.85;;;5.35;;
20954;SDS011;10636;19.390;-99.256;2024-02-21T12:10:07;5.40;;;4.90;;
20954;SDS011;10636;19.390;-99.256;2024-02-21T12:12:38;5.15;;;4.65;;
20954;SDS011;10636;19.390;-99.256;2024-02-21T12:15:07;5.57;;;4.80;;
20954;SDS011;10636;19.390;-99.256;2024-02-21T12:17:36;4.63;;;4.18;;
20954;SDS011;10636;19.390;-99.256;2024-02-21T12:20:05;4.78;;;4.28;;
20954;SDS011;10636;19.390;-99.256;2024-02-21T12:22:37;4.63;;;3.70;;
20954;SDS011;10636;19.390;-99.256;2024-02-21T12:25:15;4.30;;;3.45;;
20954;SDS011;10636;19.390;-99.256;2024-02-21T12:27:46;4.07;;;3.58;;
20954;SDS011;10636;19.390;-99.256;2024-02-21T12:30:15;5.90;;;3.60;;
20954;SDS011;10636;19.390;-99.256;2024-02-21T12:32:43;4.05;;;3.40;;
20954;SDS011;10636;19.390;-99.256;2024-02-21T12:35:12;4.22;;;3.28;;
20954;SDS011;10636;19.390;-99.256;2024-02-21T12:37:40;4.30;;;3.17;;
20954;SDS011;10636;19.390;-99.256;2024-02-21T12:40:09;4.82;;;3.30;;
20954;SDS011;10636;19.390;-99.256;2024-02-21T12:42:38;3.50;;;3.20;;
20954;SDS011;10636;19.390;-99.256;2024-02-21T12:45:09;5.88;;;3.00;;
20954;SDS011;10636;19.390;-99.256;2024-02-21T12:47:38;6.50;;;3.13;;
20954;SDS011;10636;19.390;-99.256;2024-02-21T12:50:07;3.97;;;3.00;;
20954;SDS011;10636;19.390;-99.256;2024-02-21T12:52:36;3.40;;;3.10;;
20954;SDS011;10636;19.390;-99.256;2024-02-21T12:55:05;6.10;;;3.10;;
20954;SDS011;10636;19.390;-99.256;2024-02-21T12:57:36;5.72;;;3.30;;
20954;SDS011;10636;19.390;-99.256;2024-02-21T13:00:12;5.35;;;3.03;;
20954;SDS011;10636;19.390;-99.256;2024-02-21T13:02:41;3.40;;;2.90;;
20954;SDS011;10636;19.390;-99.256;2024-02-21T13:05:11;5.95;;;3.30;;
20954;SDS011;10636;19.390;-99.256;2024-02-21T13:07:40;4.55;;;3.08;;
20954;SDS011;10636;19.390;-99.256;2024-02-21T13:10:08;3.40;;;3.10;;
20954;SDS011;10636;19.390;-99.256;2024-02-21T13:12:37;6.18;;;3.30;;
20954;SDS011;10636;19.390;-99.256;2024-02-21T13:15:06;4.88;;;3.40;;
20954;SDS011;10636;19.390;-99.256;2024-02-21T13:17:39;5.82;;;3.40;;
20954;SDS011;10636;19.390;-99.256;2024-02-21T13:20:10;5.57;;;3.10;;
20954;SDS011;10636;19.390;-99.256;2024-02-21T13:22:39;4.28;;;3.15;;
20954;SDS011;10636;19.390;-99.256;2024-02-21T13:25:08;4.80;;;3.33;;
20954;SDS011;10636;19.390;-99.256;2024-02-21T13:27:37;6.28;;;3.20;;
20954;SDS011;10636;19.390;-99.256;2024-02-21T13:30:06;5.35;;;3.00;;
20954;SDS011;10636;19.390;-99.256;2024-02-21T13:32:35;4.80;;;3.00;;
20954;SDS011;10636;19.390;-99.256;2024-02-21T13:35:06;4.35;;;3.00;;
20954;SDS011;10636;19.390;-99.256;2024-02-21T13:37:37;3.67;;;2.90;;
20954;SDS011;10636;19.390;-99.256;2024-02-21T13:40:06;4.65;;;3.10;;
20954;SDS011;10636;19.390;-99.256;2024-02-21T13:42:37;4.25;;;3.47;;
20954;SDS011;10636;19.390;-99.256;2024-02-21T13:45:06;5.97;;;3.13;;
20954;SDS011;10636;19.390;-99.256;2024-02-21T13:47:35;5.18;;;3.45;;
20954;SDS011;10636;19.390;-99.256;2024-02-21T13:50:09;5.25;;;3.25;;
20954;SDS011;10636;19.390;-99.256;2024-02-21T13:52:39;3.72;;;2.85;;
20954;SDS011;10636;19.390;-99.256;2024-02-21T13:55:08;5.10;;;3.10;;
20954;SDS011;10636;19.390;-99.256;2024-02-21T13:57:37;3.35;;;3.03;;
20954;SDS011;10636;19.390;-99.256;2024-02-21T14:00:09;4.03;;;3.28;;
20954;SDS011;10636;19.390;-99.256;2024-02-21T14:02:38;5.25;;;3.30;;
20954;SDS011;10636;19.390;-99.256;2024-02-21T14:05:08;4.53;;;3.10;;
20954;SDS011;10636;19.390;-99.256;2024-02-21T14:07:37;4.65;;;3.30;;
20954;SDS011;10636;19.390;-99.256;2024-02-21T14:10:06;4.72;;;3.25;;
20954;SDS011;10636;19.390;-99.256;2024-02-21T14:12:36;7.18;;;3.40;;
20954;SDS011;10636;19.390;-99.256;2024-02-21T14:15:08;5.70;;;3.55;;
20954;SDS011;10636;19.390;-99.256;2024-02-21T14:17:40;4.97;;;3.80;;
20954;SDS011;10636;19.390;-99.256;2024-02-21T14:20:10;4.60;;;3.90;;
20954;SDS011;10636;19.390;-99.256;2024-02-21T14:22:40;3.85;;;3.45;;
20954;SDS011;10636;19.390;-99.256;2024-02-21T14:25:08;7.63;;;3.97;;
20954;SDS011;10636;19.390;-99.256;2024-02-21T14:27:37;7.68;;;4.75;;
20954;SDS011;10636;19.390;-99.256;2024-02-21T14:30:06;8.23;;;4.80;;
20954;SDS011;10636;19.390;-99.256;2024-02-21T14:32:43;8.35;;;5.28;;
20954;SDS011;10636;19.390;-99.256;2024-02-21T14:35:15;8.30;;;5.30;;